createdAt,value
2019-04-23T00:00:30.105Z,14.03
2019-04-23T00:02:35.402Z,13.90
2019-04-23T00:03:38.873Z,13.90
2019-04-23T00:04:37.091Z,13.95
2019-04-23T00:06:43.314Z,13.89
2019-04-23T00:07:51.530Z,13.86
2019-04-23T00:08:50.189Z,13.77
2019-04-23T00:09:38.532Z,13.78
2019-04-23T00:10:34.829Z,13.78
2019-04-23T00:11:40.964Z,13.78
2019-04-23T00:12:45.231Z,13.78
2019-04-23T00:13:44.219Z,13.75
2019-04-23T00:14:49.505Z,13.77
2019-04-23T00:15:41.713Z,13.86
2019-04-23T00:16:42.647Z,13.79
2019-04-23T00:17:45.190Z,13.79
2019-04-23T00:18:42.259Z,13.75
2019-04-23T00:19:41.150Z,13.71
2019-04-23T00:20:44.287Z,13.59
2019-04-23T00:21:43.076Z,13.63
2019-04-23T00:22:44.982Z,13.72
2019-04-23T00:23:49.184Z,13.62
2019-04-23T00:25:06.158Z,13.65
2019-04-23T00:26:53.760Z,13.54
2019-04-23T00:27:45.896Z,13.53
2019-04-23T00:28:40.886Z,13.60
2019-04-23T00:29:46.242Z,13.59
2019-04-23T00:30:51.515Z,13.54
2019-04-23T00:31:36.166Z,13.46
2019-04-23T00:32:40.828Z,13.42
2019-04-23T00:33:36.108Z,13.47
2019-04-23T00:34:42.681Z,13.38
2019-04-23T00:35:38.379Z,13.39
2019-04-23T00:36:37.788Z,13.44
2019-04-23T00:37:41.940Z,13.46
2019-04-23T00:38:41.760Z,13.41
2019-04-23T00:39:42.440Z,13.31
2019-04-23T00:40:40.828Z,13.25
2019-04-23T00:42:41.599Z,13.27
2019-04-23T00:43:43.284Z,13.28
2019-04-23T00:44:49.206Z,13.12
2019-04-23T00:45:59.317Z,13.19
2019-04-23T00:46:43.450Z,13.13
2019-04-23T00:47:38.731Z,13.23
2019-04-23T00:48:42.853Z,13.31
2019-04-23T00:49:41.453Z,13.16
2019-04-23T00:50:46.045Z,13.19
2019-04-23T00:51:46.045Z,13.11
2019-04-23T00:52:38.898Z,12.98
2019-04-23T00:53:38.937Z,13.08
2019-04-23T00:54:46.370Z,13.09
2019-04-23T00:55:44.677Z,13.11
2019-04-23T00:58:54.968Z,12.94
2019-04-23T00:59:44.611Z,13.05
2019-04-23T01:01:49.670Z,12.98
2019-04-23T01:02:46.405Z,12.93
2019-04-23T01:03:40.549Z,13.00
2019-04-23T01:04:41.755Z,12.97
2019-04-23T01:05:52.313Z,12.97
2019-04-23T01:06:39.109Z,12.94
2019-04-23T01:07:40.033Z,12.87
2019-04-23T01:08:41.991Z,12.85
2019-04-23T01:09:47.393Z,12.85
2019-04-23T01:10:45.857Z,12.86
2019-04-23T01:11:39.387Z,12.76
2019-04-23T01:12:46.890Z,12.78
2019-04-23T01:13:43.202Z,12.75
2019-04-23T01:14:38.487Z,12.65
2019-04-23T01:15:46.729Z,12.65
2019-04-23T01:16:37.394Z,12.64
2019-04-23T01:17:49.118Z,12.73
2019-04-23T01:19:37.486Z,12.76
2019-04-23T01:20:44.447Z,12.58
2019-04-23T01:21:19.901Z,12.62
2019-04-23T01:22:19.265Z,12.60
2019-04-23T01:23:21.932Z,12.61
2019-04-23T01:24:23.794Z,12.55
2019-04-23T01:25:28.675Z,12.64
2019-04-23T01:26:34.371Z,12.62
2019-04-23T01:27:53.041Z,12.54
2019-04-23T01:29:42.565Z,12.49
2019-04-23T01:30:52.796Z,12.50
2019-04-23T01:31:47.889Z,12.39
2019-04-23T01:32:48.464Z,12.42
2019-04-23T01:33:48.810Z,12.39
2019-04-23T01:34:52.012Z,12.39
2019-04-23T01:35:59.870Z,12.37
2019-04-23T01:36:41.194Z,12.22
2019-04-23T01:37:41.205Z,12.43
2019-04-23T01:38:49.947Z,12.42
2019-04-23T01:39:43.864Z,12.39
2019-04-23T01:40:40.705Z,12.36
2019-04-23T01:41:50.714Z,12.35
2019-04-23T01:42:44.171Z,12.28
2019-04-23T01:44:52.106Z,12.28
2019-04-23T01:45:37.714Z,12.29
2019-04-23T01:46:50.994Z,12.27
2019-04-23T01:48:50.274Z,12.27
2019-04-23T01:49:53.980Z,12.36
2019-04-23T01:50:48.375Z,12.27
2019-04-23T01:51:48.289Z,12.25
2019-04-23T01:53:45.506Z,12.25
2019-04-23T01:54:45.549Z,12.20
2019-04-23T01:55:49.769Z,12.18
2019-04-23T01:56:45.830Z,12.20
2019-04-23T01:58:46.342Z,12.29
2019-04-23T01:59:45.874Z,12.29
2019-04-23T02:00:47.699Z,12.21
2019-04-23T02:01:58.846Z,12.20
2019-04-23T02:02:51.041Z,12.10
2019-04-23T02:03:48.542Z,12.10
2019-04-23T02:04:45.744Z,12.06
2019-04-23T02:05:48.195Z,12.12
2019-04-23T02:06:45.469Z,12.13
2019-04-23T02:07:50.477Z,12.07
2019-04-23T02:08:47.079Z,12.02
2019-04-23T02:09:48.242Z,12.06
2019-04-23T02:10:55.325Z,12.13
2019-04-23T02:11:48.398Z,12.04
2019-04-23T02:12:53.458Z,12.09
2019-04-23T02:13:53.282Z,12.09
2019-04-23T02:15:47.411Z,12.13
2019-04-23T02:16:42.535Z,12.09
2019-04-23T02:17:52.165Z,12.02
2019-04-23T02:18:49.348Z,12.06
2019-04-23T02:20:47.944Z,12.03
2019-04-23T02:21:55.160Z,12.10
2019-04-23T02:23:01.371Z,12.03
2019-04-23T02:23:44.012Z,12.10
2019-04-23T02:24:49.259Z,12.06
2019-04-23T02:26:46.715Z,12.10
2019-04-23T02:27:54.071Z,12.10
2019-04-23T02:31:57.735Z,12.02
2019-04-23T02:33:01.429Z,12.09
2019-04-23T02:34:12.128Z,12.06
2019-04-23T02:35:02.331Z,12.09
2019-04-23T02:36:57.325Z,12.10
2019-04-23T02:38:00.813Z,12.10
2019-04-23T02:43:59.153Z,12.13
2019-04-23T02:46:04.590Z,12.09
2019-04-23T02:47:03.435Z,12.09
2019-04-23T02:48:08.541Z,12.13
2019-04-23T02:50:12.420Z,12.09
2019-04-23T02:50:48.769Z,12.06
2019-04-23T02:52:03.888Z,12.07
2019-04-23T02:52:56.184Z,12.06
2019-04-23T02:54:19.734Z,12.13
2019-04-23T02:55:08.723Z,12.24
2019-04-23T02:56:51.074Z,12.20
2019-04-23T02:57:50.379Z,12.17
2019-04-23T03:01:15.273Z,12.17
2019-04-23T03:05:13.932Z,12.27
2019-04-23T03:05:49.306Z,12.29
2019-04-23T03:06:55.953Z,12.28
2019-04-23T03:09:56.455Z,12.25
2019-04-23T03:11:04.789Z,12.27
2019-04-23T03:14:07.459Z,12.27
2019-04-23T03:15:00.809Z,12.22
2019-04-23T03:16:04.187Z,12.22
2019-04-23T03:17:57.492Z,12.17
2019-04-23T03:18:58.180Z,12.13
2019-04-23T03:19:59.605Z,12.12
2019-04-23T03:21:09.033Z,12.13
2019-04-23T03:24:57.211Z,12.13
2019-04-23T03:26:13.737Z,12.12
2019-04-23T03:27:46.445Z,12.12
2019-04-23T03:28:57.761Z,12.10
2019-04-23T03:34:19.674Z,12.07
2019-04-23T03:37:58.575Z,12.00
2019-04-23T03:41:10.745Z,11.91
2019-04-23T03:41:53.905Z,11.91
2019-04-23T03:43:01.350Z,11.88
2019-04-23T03:43:51.537Z,11.94
2019-04-23T03:45:00.674Z,11.84
2019-04-23T03:46:15.701Z,11.81
2019-04-23T03:46:51.456Z,11.94
2019-04-23T03:47:56.104Z,11.75
2019-04-23T03:50:02.536Z,11.65
2019-04-23T03:50:43.963Z,11.69
2019-04-23T03:52:44.903Z,11.60
2019-04-23T03:54:10.054Z,11.55
2019-04-23T03:56:05.178Z,11.66
2019-04-23T03:57:06.058Z,11.60
2019-04-23T03:57:52.589Z,11.60
2019-04-23T03:59:11.331Z,11.66
2019-04-23T04:00:20.665Z,11.66
2019-04-23T04:00:58.084Z,11.68
2019-04-23T04:02:00.603Z,11.68
2019-04-23T04:04:49.795Z,11.68
2019-04-23T04:06:03.770Z,11.59
2019-04-23T04:11:09.914Z,11.62
2019-04-23T04:12:00.967Z,11.59
2019-04-23T04:12:45.672Z,11.62
2019-04-23T04:14:00.948Z,11.65
2019-04-23T04:19:56.899Z,11.51
2019-04-23T04:21:01.072Z,11.44
2019-04-23T04:21:58.551Z,11.37
2019-04-23T04:23:19.567Z,11.45
2019-04-23T04:24:03.223Z,11.47
2019-04-23T04:24:48.176Z,11.37
2019-04-23T04:27:01.802Z,11.36
2019-04-23T04:28:07.997Z,11.40
2019-04-23T04:31:52.287Z,11.41
2019-04-23T04:33:17.836Z,11.48
2019-04-23T04:34:11.844Z,11.40
2019-04-23T04:35:58.400Z,11.33
2019-04-23T04:38:54.321Z,11.43
2019-04-23T04:41:03.021Z,11.47
2019-04-23T04:41:57.060Z,11.44
2019-04-23T04:43:06.722Z,11.55
2019-04-23T04:44:05.300Z,11.52
2019-04-23T04:45:14.242Z,11.54
2019-04-23T04:46:15.006Z,11.45
2019-04-23T04:47:15.236Z,11.52
2019-04-23T04:48:55.827Z,11.48
2019-04-23T04:51:00.063Z,11.57
2019-04-23T04:52:22.643Z,11.65
2019-04-23T04:52:57.950Z,11.52
2019-04-23T04:54:00.868Z,11.57
2019-04-23T04:54:49.777Z,11.60
2019-04-23T04:57:00.390Z,11.69
2019-04-23T04:57:58.113Z,11.70
2019-04-23T04:59:08.901Z,11.72
2019-04-23T05:00:05.735Z,11.70
2019-04-23T05:01:58.539Z,11.86
2019-04-23T05:03:17.931Z,11.87
2019-04-23T05:03:45.838Z,11.77
2019-04-23T05:05:33.025Z,11.86
2019-04-23T05:06:22.635Z,11.78
2019-04-23T05:07:02.230Z,11.78
2019-04-23T05:11:00.314Z,11.86
2019-04-23T05:12:01.090Z,11.83
2019-04-23T05:13:08.988Z,11.91
2019-04-23T05:14:00.094Z,11.95
2019-04-23T05:14:58.684Z,11.81
2019-04-23T05:15:50.147Z,11.84
2019-04-23T05:17:59.991Z,11.94
2019-04-23T05:18:58.062Z,11.90
2019-04-23T05:19:51.227Z,11.97
2019-04-23T05:20:58.087Z,11.94
2019-04-23T05:22:06.549Z,11.97
2019-04-23T05:23:02.761Z,11.97
2019-04-23T05:23:54.474Z,12.03
2019-04-23T05:24:48.585Z,12.10
2019-04-23T05:25:49.677Z,12.15
2019-04-23T05:26:59.298Z,12.10
2019-04-23T05:29:01.877Z,12.27
2019-04-23T05:29:54.323Z,12.42
2019-04-23T05:30:57.553Z,12.46
2019-04-23T05:31:47.006Z,12.47
2019-04-23T05:32:53.697Z,12.54
2019-04-23T05:33:57.236Z,12.47
2019-04-23T05:34:54.104Z,12.53
2019-04-23T05:39:56.699Z,12.22
2019-04-23T05:40:53.761Z,12.32
2019-04-23T05:41:53.766Z,12.37
2019-04-23T05:42:56.419Z,12.39
2019-04-23T05:43:57.454Z,12.42
2019-04-23T05:44:55.746Z,12.42
2019-04-23T05:45:53.144Z,12.39
2019-04-23T05:46:52.248Z,12.39
2019-04-23T05:48:54.469Z,12.50
2019-04-23T05:49:54.663Z,12.50
2019-04-23T05:50:58.836Z,12.54
2019-04-23T05:52:52.810Z,12.53
2019-04-23T05:53:51.187Z,12.47
2019-04-23T05:54:56.270Z,12.62
2019-04-23T05:55:55.421Z,12.67
2019-04-23T05:57:00.269Z,12.67
2019-04-23T05:57:52.026Z,12.75
2019-04-23T05:58:53.136Z,12.87
2019-04-23T05:59:53.244Z,12.85
2019-04-23T06:00:59.349Z,12.90
2019-04-23T06:02:56.628Z,12.85
2019-04-23T06:03:56.484Z,12.80
2019-04-23T06:04:49.545Z,12.93
2019-04-23T06:06:01.145Z,12.94
2019-04-23T06:08:12.050Z,13.04
2019-04-23T06:08:55.886Z,13.13
2019-04-23T06:09:54.953Z,13.11
2019-04-23T06:11:00.837Z,13.01
2019-04-23T06:12:52.133Z,13.12
2019-04-23T06:14:00.241Z,13.08
2019-04-23T06:14:54.073Z,13.13
2019-04-23T06:15:54.080Z,12.97
2019-04-23T06:17:02.102Z,13.12
2019-04-23T06:17:55.902Z,13.08
2019-04-23T06:18:59.262Z,13.19
2019-04-23T06:19:53.022Z,13.15
2019-04-23T06:21:00.905Z,13.27
2019-04-23T06:21:57.860Z,13.30
2019-04-23T06:22:56.122Z,13.27
2019-04-23T06:23:56.174Z,13.42
2019-04-23T06:26:54.315Z,13.49
2019-04-23T06:27:54.452Z,13.59
2019-04-23T06:28:50.794Z,13.59
2019-04-23T06:29:54.250Z,13.62
2019-04-23T06:31:54.016Z,13.52
2019-04-23T06:32:51.392Z,13.63
2019-04-23T06:33:57.153Z,13.62
2019-04-23T06:35:50.381Z,13.81
2019-04-23T06:36:51.216Z,13.90
2019-04-23T06:39:51.299Z,13.93
2019-04-23T06:40:54.308Z,13.99
2019-04-23T06:42:54.718Z,13.95
2019-04-23T06:43:58.428Z,14.00
2019-04-23T06:44:54.902Z,14.08
2019-04-23T06:45:54.800Z,14.07
2019-04-23T06:47:56.019Z,14.20
2019-04-23T06:48:47.242Z,14.22
2019-04-23T06:49:51.527Z,14.22
2019-04-23T06:50:59.418Z,14.22
2019-04-23T06:52:00.926Z,14.25
2019-04-23T06:52:50.141Z,14.32
2019-04-23T06:53:55.112Z,14.35
2019-04-23T06:54:55.991Z,14.47
2019-04-23T06:57:02.231Z,14.36
2019-04-23T06:57:51.055Z,14.36
2019-04-23T06:58:48.956Z,14.44
2019-04-23T06:59:52.672Z,14.48
2019-04-23T07:00:58.729Z,14.53
2019-04-23T07:01:59.396Z,14.53
2019-04-23T07:02:55.270Z,14.66
2019-04-23T07:03:56.972Z,14.63
2019-04-23T07:04:56.908Z,14.62
2019-04-23T07:06:03.450Z,14.58
2019-04-23T07:08:00.889Z,14.62
2019-04-23T07:09:09.639Z,14.58
2019-04-23T07:09:54.014Z,14.62
2019-04-23T07:10:57.984Z,14.69
2019-04-23T07:11:47.530Z,14.79
2019-04-23T07:13:58.799Z,14.88
2019-04-23T07:16:07.758Z,14.97
2019-04-23T07:16:54.489Z,14.88
2019-04-23T07:17:51.246Z,14.81
2019-04-23T07:19:12.754Z,14.89
2019-04-23T07:19:48.383Z,14.99
2019-04-23T07:20:49.341Z,15.04
2019-04-23T07:22:04.732Z,15.07
2019-04-23T07:22:58.178Z,15.07
2019-04-23T07:24:00.322Z,15.15
2019-04-23T07:24:54.130Z,15.14
2019-04-23T07:25:59.821Z,15.06
2019-04-23T07:26:43.060Z,15.07
2019-04-23T07:27:51.323Z,14.92
2019-04-23T07:28:53.328Z,14.99
2019-04-23T07:29:58.123Z,15.17
2019-04-23T07:31:07.363Z,15.21
2019-04-23T07:31:54.692Z,15.15
2019-04-23T07:32:56.720Z,15.15
2019-04-23T07:33:55.777Z,15.17
2019-04-23T07:34:49.545Z,15.15
2019-04-23T07:35:51.803Z,15.27
2019-04-23T07:36:53.711Z,15.29
2019-04-23T07:38:01.811Z,15.25
2019-04-23T07:39:09.819Z,15.19
2019-04-23T07:40:12.980Z,15.21
2019-04-23T07:40:50.101Z,15.27
2019-04-23T07:42:51.208Z,15.46
2019-04-23T07:43:54.784Z,15.42
2019-04-23T07:44:56.435Z,15.33
2019-04-23T07:45:54.840Z,15.27
2019-04-23T07:47:03.081Z,15.37
2019-04-23T07:48:02.044Z,15.36
2019-04-23T07:48:47.969Z,15.42
2019-04-23T07:50:05.153Z,15.46
2019-04-23T07:52:01.273Z,15.57
2019-04-23T07:53:00.234Z,15.70
2019-04-23T07:55:02.383Z,15.67
2019-04-23T07:55:56.890Z,15.61
2019-04-23T07:57:02.958Z,15.77
2019-04-23T07:58:03.080Z,15.84
2019-04-23T07:58:58.360Z,15.90
2019-04-23T07:59:56.270Z,15.88
2019-04-23T08:01:04.778Z,15.95
2019-04-23T08:01:57.453Z,16.02
2019-04-23T08:03:03.467Z,16.21
2019-04-23T08:03:55.880Z,16.23
2019-04-23T08:05:06.328Z,16.10
2019-04-23T08:05:49.514Z,15.92
2019-04-23T08:06:57.795Z,15.91
2019-04-23T08:07:58.882Z,16.13
2019-04-23T08:09:09.086Z,16.13
2019-04-23T08:09:53.287Z,16.16
2019-04-23T08:11:16.405Z,16.36
2019-04-23T08:12:07.916Z,16.36
2019-04-23T08:12:56.242Z,16.38
2019-04-23T08:15:02.268Z,16.38
2019-04-23T08:15:57.429Z,16.51
2019-04-23T08:16:58.128Z,16.43
2019-04-23T08:17:53.091Z,16.42
2019-04-23T08:18:55.741Z,16.58
2019-04-23T08:20:02.049Z,16.53
2019-04-23T08:21:10.539Z,16.57
2019-04-23T08:22:02.496Z,16.66
2019-04-23T08:22:53.794Z,16.69
2019-04-23T08:23:56.948Z,16.68
2019-04-23T08:24:57.417Z,16.72
2019-04-23T08:26:02.864Z,16.68
2019-04-23T08:26:55.101Z,16.81
2019-04-23T08:27:48.662Z,16.87
2019-04-23T08:29:03.635Z,16.96
2019-04-23T08:29:47.821Z,17.02
2019-04-23T08:30:53.069Z,17.11
2019-04-23T08:32:57.608Z,16.56
2019-04-23T08:33:57.432Z,16.53
2019-04-23T08:34:58.386Z,16.76
2019-04-23T08:35:57.652Z,16.97
2019-04-23T08:37:00.064Z,17.09
2019-04-23T08:38:11.672Z,17.19
2019-04-23T08:38:51.087Z,17.26
2019-04-23T08:41:04.449Z,17.22
2019-04-23T08:42:03.610Z,16.97
2019-04-23T08:42:58.893Z,17.02
2019-04-23T08:43:59.421Z,16.96
2019-04-23T08:45:07.109Z,17.06
2019-04-23T08:45:52.508Z,16.94
2019-04-23T08:48:00.699Z,17.08
2019-04-23T08:48:57.551Z,17.14
2019-04-23T08:49:50.571Z,17.33
2019-04-23T08:50:54.558Z,17.42
2019-04-23T08:52:00.238Z,17.41
2019-04-23T08:53:03.774Z,17.27
2019-04-23T08:53:56.904Z,17.24
2019-04-23T08:55:10.114Z,17.22
2019-04-23T08:57:04.026Z,17.38
2019-04-23T08:57:47.078Z,17.38
2019-04-23T08:58:57.662Z,17.38
2019-04-23T09:02:03.658Z,17.70
2019-04-23T09:03:06.213Z,17.63
2019-04-23T09:03:52.748Z,17.60
2019-04-23T09:07:04.514Z,17.42
2019-04-23T09:07:59.916Z,17.48
2019-04-23T09:08:49.939Z,17.63
2019-04-23T09:09:56.685Z,17.71
2019-04-23T09:11:06.751Z,17.57
2019-04-23T09:11:55.856Z,17.64
2019-04-23T09:13:09.564Z,17.71
2019-04-23T09:15:16.770Z,17.63
2019-04-23T09:15:56.229Z,17.80
2019-04-23T09:16:58.400Z,17.89
2019-04-23T09:17:56.319Z,17.83
2019-04-23T09:18:52.782Z,17.86
2019-04-23T09:20:11.797Z,18.07
2019-04-23T09:20:48.005Z,18.15
2019-04-23T09:22:03.309Z,18.31
2019-04-23T09:22:50.116Z,18.15
2019-04-23T09:23:56.242Z,18.31
2019-04-23T09:24:55.573Z,18.31
2019-04-23T09:25:54.406Z,18.34
2019-04-23T09:27:01.954Z,18.38
2019-04-23T09:28:03.391Z,18.38
2019-04-23T09:30:00.072Z,18.41
2019-04-23T09:30:57.820Z,18.43
2019-04-23T09:32:14.806Z,18.44
2019-04-23T09:33:00.860Z,18.37
2019-04-23T09:33:58.648Z,18.19
2019-04-23T09:35:06.233Z,18.35
2019-04-23T09:35:57.417Z,18.23
2019-04-23T09:36:59.809Z,18.41
2019-04-23T09:37:58.453Z,18.45
2019-04-23T09:39:59.519Z,18.49
2019-04-23T09:41:09.899Z,18.44
2019-04-23T09:41:51.778Z,18.49
2019-04-23T09:43:55.652Z,18.66
2019-04-23T09:44:58.498Z,18.75
2019-04-23T09:45:59.781Z,18.78
2019-04-23T09:47:01.946Z,18.84
2019-04-23T09:47:57.289Z,18.81
2019-04-23T09:49:13.444Z,18.80
2019-04-23T09:49:56.837Z,18.75
2019-04-23T09:50:57.220Z,18.47
2019-04-23T09:52:00.815Z,18.65
2019-04-23T09:53:04.947Z,18.49
2019-04-23T09:54:01.004Z,18.66
2019-04-23T09:55:16.232Z,18.60
2019-04-23T09:55:45.519Z,18.50
2019-04-23T09:56:54.081Z,18.33
2019-04-23T09:58:11.787Z,18.38
2019-04-23T09:59:58.228Z,18.77
2019-04-23T10:00:56.144Z,18.80
2019-04-23T10:01:45.250Z,18.89
2019-04-23T10:02:45.670Z,18.96
2019-04-23T10:03:44.066Z,18.86
2019-04-23T10:04:44.953Z,18.56
2019-04-23T10:05:39.888Z,18.44
2019-04-23T10:06:33.426Z,18.40
2019-04-23T10:07:41.836Z,18.43
2019-04-23T10:08:35.566Z,18.63
2019-04-23T10:09:30.066Z,18.66
2019-04-23T10:10:30.283Z,18.73
2019-04-23T10:11:30.508Z,18.78
2019-04-23T10:12:30.253Z,18.92
2019-04-23T10:13:29.666Z,18.90
2019-04-23T10:14:30.459Z,18.75
2019-04-23T10:15:35.005Z,18.77
2019-04-23T10:16:32.435Z,18.47
2019-04-23T10:17:29.246Z,18.49
2019-04-23T10:18:29.283Z,18.40
2019-04-23T10:19:30.665Z,18.28
2019-04-23T10:20:30.790Z,18.23
2019-04-23T10:21:29.389Z,18.58
2019-04-23T10:22:32.293Z,18.92
2019-04-23T10:23:29.584Z,18.90
2019-04-23T10:24:30.822Z,19.08
2019-04-23T10:25:30.157Z,19.02
2019-04-23T10:26:30.249Z,19.09
2019-04-23T10:27:29.565Z,19.07
2019-04-23T10:28:29.717Z,18.93
2019-04-23T10:29:29.904Z,18.84
2019-04-23T10:30:30.943Z,18.70
2019-04-23T10:31:29.598Z,18.71
2019-04-23T10:32:29.856Z,18.78
2019-04-23T10:33:29.715Z,18.96
2019-04-23T10:34:42.259Z,19.18
2019-04-23T10:35:39.455Z,19.37
2019-04-23T10:36:30.507Z,19.52
2019-04-23T10:37:36.711Z,19.52
2019-04-23T10:38:30.735Z,19.37
2019-04-23T10:39:35.142Z,19.34
2019-04-23T10:40:35.843Z,19.54
2019-04-23T10:41:30.655Z,19.56
2019-04-23T10:42:32.078Z,19.59
2019-04-23T10:43:31.518Z,19.62
2019-04-23T10:44:31.185Z,19.51
2019-04-23T10:45:50.245Z,19.27
2019-04-23T10:46:53.751Z,19.22
2019-04-23T10:48:07.405Z,19.30
2019-04-23T10:49:18.082Z,19.45
2019-04-23T10:52:17.048Z,19.55
2019-04-23T10:53:02.157Z,19.64
2019-04-23T10:54:02.868Z,19.34
2019-04-23T10:55:22.322Z,19.39
2019-04-23T10:57:12.841Z,19.37
2019-04-23T10:57:54.122Z,19.21
2019-04-23T10:59:01.823Z,18.99
2019-04-23T11:00:09.174Z,19.27
2019-04-23T11:00:59.843Z,19.36
2019-04-23T11:02:15.732Z,19.36
2019-04-23T11:03:02.175Z,19.45
2019-04-23T11:04:10.714Z,19.39
2019-04-23T11:07:12.970Z,19.49
2019-04-23T11:07:47.472Z,19.51
2019-04-23T11:09:08.295Z,19.36
2019-04-23T11:10:58.623Z,19.56
2019-04-23T11:12:03.786Z,19.62
2019-04-23T11:13:00.795Z,19.47
2019-04-23T11:14:05.410Z,19.27
2019-04-23T11:15:09.264Z,19.47
2019-04-23T11:16:37.106Z,19.44
2019-04-23T11:17:15.629Z,19.36
2019-04-23T11:17:52.453Z,19.45
2019-04-23T11:19:07.389Z,19.73
2019-04-23T11:20:06.814Z,19.76
2019-04-23T11:20:59.387Z,19.79
2019-04-23T11:22:24.457Z,19.63
2019-04-23T11:23:08.981Z,19.51
2019-04-23T11:24:00.069Z,19.63
2019-04-23T11:25:02.147Z,19.79
2019-04-23T11:25:55.853Z,19.86
2019-04-23T11:27:01.913Z,19.92
2019-04-23T11:29:01.975Z,19.86
2019-04-23T11:30:11.902Z,19.56
2019-04-23T11:32:13.079Z,19.63
2019-04-23T11:34:10.686Z,19.91
2019-04-23T11:35:11.459Z,19.96
2019-04-23T11:36:18.959Z,20.00
2019-04-23T11:37:03.883Z,20.06
2019-04-23T11:37:58.722Z,19.73
2019-04-23T11:38:22.011Z,20.09
2019-04-23T11:40:01.101Z,20.24
2019-04-23T11:40:59.932Z,20.26
2019-04-23T11:43:09.093Z,20.34
2019-04-23T11:44:09.821Z,20.14
2019-04-23T11:45:06.841Z,20.25
2019-04-23T11:47:41.677Z,20.25
2019-04-23T11:48:33.996Z,20.24
2019-04-23T11:49:22.286Z,20.25
2019-04-23T11:52:19.348Z,20.21
2019-04-23T11:53:20.448Z,20.37
2019-04-23T11:54:03.803Z,20.09
2019-04-23T11:55:05.253Z,19.99
2019-04-23T11:58:07.665Z,20.34
2019-04-23T11:59:27.478Z,20.47
2019-04-23T11:59:59.026Z,20.62
2019-04-23T12:01:10.965Z,20.62
2019-04-23T12:02:12.125Z,20.60
2019-04-23T12:02:57.483Z,20.67
2019-04-23T12:04:12.745Z,20.82
2019-04-23T12:06:07.894Z,20.95
2019-04-23T12:07:03.736Z,21.06
2019-04-23T12:07:57.652Z,21.02
2019-04-23T12:08:57.214Z,20.90
2019-04-23T12:10:07.277Z,20.96
2019-04-23T12:11:35.472Z,21.00
2019-04-23T12:12:18.866Z,20.93
2019-04-23T12:13:07.888Z,20.96
2019-04-23T12:14:15.458Z,21.02
2019-04-23T12:15:05.762Z,20.90
2019-04-23T12:16:06.598Z,20.88
2019-04-23T12:17:18.556Z,20.81
2019-04-23T12:18:05.385Z,20.88
2019-04-23T12:19:28.735Z,20.81
2019-04-23T12:20:07.972Z,20.88
2019-04-23T12:20:56.842Z,20.95
2019-04-23T12:23:25.398Z,20.70
2019-04-23T12:24:10.264Z,20.90
2019-04-23T12:26:06.600Z,21.14
2019-04-23T12:27:47.046Z,21.12
2019-04-23T12:28:57.764Z,21.11
2019-04-23T12:30:00.782Z,21.09
2019-04-23T12:31:00.812Z,21.05
2019-04-23T12:32:14.231Z,21.05
2019-04-23T12:33:20.334Z,21.06
2019-04-23T12:36:10.269Z,21.22
2019-04-23T12:37:09.543Z,21.32
2019-04-23T12:38:04.175Z,21.25
2019-04-23T12:39:08.794Z,21.17
2019-04-23T12:40:06.059Z,21.21
2019-04-23T12:40:55.815Z,21.35
2019-04-23T12:41:52.754Z,21.43
2019-04-23T12:43:57.520Z,21.70
2019-04-23T12:45:03.476Z,21.80
2019-04-23T12:45:57.411Z,21.77
2019-04-23T12:47:05.539Z,21.69
2019-04-23T12:49:22.152Z,21.58
2019-04-23T12:50:31.042Z,21.48
2019-04-23T12:51:17.394Z,21.40
2019-04-23T12:52:02.402Z,21.17
2019-04-23T12:53:24.360Z,21.24
2019-04-23T12:53:59.427Z,21.48
2019-04-23T12:55:08.596Z,21.62
2019-04-23T12:56:03.709Z,21.58
2019-04-23T12:57:17.507Z,21.69
2019-04-23T12:58:01.216Z,21.60
2019-04-23T12:58:56.349Z,21.60
2019-04-23T13:01:05.241Z,21.76
2019-04-23T13:02:05.316Z,21.70
2019-04-23T13:02:58.844Z,21.77
2019-04-23T13:03:59.607Z,21.76
2019-04-23T13:05:00.302Z,21.89
2019-04-23T13:05:55.475Z,21.79
2019-04-23T13:06:57.484Z,21.73
2019-04-23T13:08:05.787Z,21.66
2019-04-23T13:09:05.456Z,21.73
2019-04-23T13:10:01.594Z,21.72
2019-04-23T13:10:57.409Z,21.73
2019-04-23T13:12:03.573Z,21.72
2019-04-23T13:13:11.421Z,21.72
2019-04-23T13:14:07.004Z,21.66
2019-04-23T13:15:05.308Z,21.70
2019-04-23T13:16:08.795Z,21.73
2019-04-23T13:19:03.571Z,21.82
2019-04-23T13:20:03.768Z,21.75
2019-04-23T13:20:58.510Z,21.77
2019-04-23T13:23:08.574Z,21.80
2019-04-23T13:23:55.570Z,21.72
2019-04-23T13:25:01.963Z,21.77
2019-04-23T13:26:00.910Z,21.85
2019-04-23T13:27:04.349Z,21.89
2019-04-23T13:29:03.153Z,21.69
2019-04-23T13:31:57.989Z,21.61
2019-04-23T13:33:13.198Z,21.72
2019-04-23T13:33:58.635Z,21.69
2019-04-23T13:35:15.052Z,21.85
2019-04-23T13:37:07.875Z,21.88
2019-04-23T13:38:10.412Z,21.91
2019-04-23T13:39:02.378Z,21.88
2019-04-23T13:39:58.313Z,21.79
2019-04-23T13:42:06.049Z,21.69
2019-04-23T13:43:14.425Z,21.66
2019-04-23T13:43:53.245Z,21.58
2019-04-23T13:45:07.039Z,21.54
2019-04-23T13:46:09.922Z,21.46
2019-04-23T13:47:12.989Z,21.51
2019-04-23T13:49:01.722Z,21.37
2019-04-23T13:50:10.010Z,21.43
2019-04-23T13:51:07.251Z,21.39
2019-04-23T13:52:19.787Z,21.43
2019-04-23T13:54:01.718Z,21.40
2019-04-23T13:56:04.024Z,21.48
2019-04-23T13:57:33.435Z,21.40
2019-04-23T13:59:07.024Z,21.45
2019-04-23T14:00:32.322Z,21.46
2019-04-23T14:01:07.405Z,21.40
2019-04-23T14:02:08.976Z,21.48
2019-04-23T14:03:04.003Z,21.58
2019-04-23T14:04:05.794Z,21.67
2019-04-23T14:06:09.394Z,21.72
2019-04-23T14:07:10.760Z,21.58
2019-04-23T14:08:24.624Z,21.55
2019-04-23T14:09:17.021Z,21.39
2019-04-23T14:11:05.472Z,21.55
2019-04-23T14:12:04.380Z,21.58
2019-04-23T14:13:28.489Z,21.60
2019-04-23T14:14:08.215Z,21.60
2019-04-23T14:15:04.483Z,21.60
2019-04-23T14:16:04.575Z,21.67
2019-04-23T14:17:15.260Z,21.70
2019-04-23T14:18:29.351Z,21.85
2019-04-23T14:19:04.713Z,21.88
2019-04-23T14:20:09.962Z,21.85
2019-04-23T14:21:06.538Z,21.77
2019-04-23T14:22:21.068Z,21.82
2019-04-23T14:26:25.820Z,21.75
2019-04-23T14:27:08.884Z,21.60
2019-04-23T14:28:16.103Z,21.69
2019-04-23T14:29:02.110Z,21.72
2019-04-23T14:31:05.947Z,21.72
2019-04-23T14:32:10.542Z,21.55
2019-04-23T14:33:15.416Z,21.57
2019-04-23T14:34:04.824Z,21.67
2019-04-23T14:35:12.926Z,21.72
2019-04-23T14:36:22.898Z,21.73
2019-04-23T14:37:09.610Z,21.61
2019-04-23T14:40:01.553Z,21.66
2019-04-23T14:41:14.940Z,21.67
2019-04-23T14:45:23.214Z,21.52
2019-04-23T14:47:07.086Z,21.40
2019-04-23T14:48:10.357Z,21.37
2019-04-23T14:49:05.487Z,21.51
2019-04-23T14:50:24.664Z,21.61
2019-04-23T14:52:06.732Z,21.57
2019-04-23T14:53:13.055Z,21.54
2019-04-23T14:54:23.391Z,21.57
2019-04-23T14:57:13.190Z,21.72
2019-04-23T14:58:25.452Z,21.55
2019-04-23T14:59:07.837Z,21.54
2019-04-23T15:00:09.483Z,21.54
2019-04-23T15:01:16.030Z,21.58
2019-04-23T15:02:07.444Z,21.67
2019-04-23T15:03:18.005Z,21.66
2019-04-23T15:04:20.512Z,21.60
2019-04-23T15:05:09.574Z,21.67
2019-04-23T15:07:08.231Z,21.76
2019-04-23T15:08:06.277Z,21.83
2019-04-23T15:10:10.526Z,21.67
2019-04-23T15:12:11.830Z,21.75
2019-04-23T15:13:12.501Z,21.75
2019-04-23T15:14:01.454Z,21.72
2019-04-23T15:15:21.233Z,21.69
2019-04-23T15:17:07.676Z,21.79
2019-04-23T15:18:09.403Z,21.89
2019-04-23T15:19:11.012Z,21.96
2019-04-23T15:20:03.014Z,21.98
2019-04-23T15:21:27.774Z,22.15
2019-04-23T15:22:12.511Z,22.22
2019-04-23T15:23:32.969Z,22.22
2019-04-23T15:24:22.999Z,22.28
2019-04-23T15:25:19.476Z,22.23
2019-04-23T15:26:47.860Z,22.15
2019-04-23T15:28:44.171Z,21.93
2019-04-23T15:29:51.106Z,21.95
2019-04-23T15:31:10.025Z,21.93
2019-04-23T15:32:14.927Z,22.00
2019-04-23T15:35:15.992Z,21.91
2019-04-23T15:36:28.869Z,21.96
2019-04-23T15:38:27.068Z,22.00
2019-04-23T15:39:19.171Z,22.02
2019-04-23T15:40:08.051Z,21.96
2019-04-23T15:42:14.467Z,22.00
2019-04-23T15:43:14.444Z,22.13
2019-04-23T15:44:10.448Z,22.04
2019-04-23T15:46:11.615Z,22.06
2019-04-23T15:47:10.215Z,22.07
2019-04-23T15:48:11.868Z,22.00
2019-04-23T15:50:10.747Z,22.08
2019-04-23T15:51:14.463Z,22.11
2019-04-23T15:52:07.436Z,22.07
2019-04-23T15:52:59.821Z,21.93
2019-04-23T15:55:05.634Z,21.99
2019-04-23T15:56:15.989Z,21.98
2019-04-23T15:57:41.694Z,21.98